الصفحة الرئيسية
METAR-TAF:

METAR-TAF

مطار :

سان خوان, بويرتو ريكو, الولايات المتحدة

دائرة عرض: 18-27-24N, خط طول: 066-05-54W, ارتفاع: 3 متر

مراقبة الطقس الحالي

تاريخ ووقت الإصدار 51 دقيقة قبل الساعة 13:50UTC
ريح 12 عقدة من الشرق
درجة الحرارة 28°درجة مئوية
الرطوبة 74%
ضغط 1017 hPa
الرؤية: 9.7 كم
غيوم متفرقة على ارتفاع 3000 قدم
غيوم متفرقة على ارتفاع 5000 قدم
غيوم مفككة على ارتفاع 9000 قدم
العجاج,

METAR: TJIG 251350Z 10012KT 6SM HZ SCT030 SCT050 BKN090 28/23 A3002

زمن: 10:41 (14:41 UTC)


TAF: مفقودة

أرصاد الطقس والتوقعات من أكثر من 4000 مطار (تقارير الطقس للمطار METAR والتنبؤ بالطقس بالمطارTAF).

المحطات المتاحة هي النقط الصفراء والحمراء على الخريطة.

حرك المؤشر فوق النقطة لمعرفة اسم المحطة.

ثم انقر لمعرفة أرصاد وتوقعات الطقس.

لتغيير الخارطة: اضغط على الأزرار الخضراء مع رمز الصليب الأسود للتكبير. على الزر الأخضر مع شرطة للتصغير، أو على الأسهم الخضراء للخرائط المجاورة.


METAR-TAF: